Terminal Aerodrome Forecast
Issued by NWS

Home | Current Version | Previous Version | Text Only | Print | Product List | Glossary Off
Versions: 1 2 3 4 5 6 7 8 9 10 11 12 13 14 15 16 17 18 19 20 21 22 23 24

702
FTUS43 KABR 041122
TAFMBG
TAF
KMBG 041122Z 0412/0512 28010KT P6SM SCT200
     FM042000 23007KT P6SM SCT250
     FM050100 18007KT P6SM BKN200=

USA.gov is the U.S. government's official web portal to all federal, state and local government web resources and services.